createdAt,value
2019-05-16T00:00:32.831Z,1009.45
2019-05-16T00:01:32.828Z,1009.41
2019-05-16T00:02:32.808Z,1009.50
2019-05-16T00:03:32.797Z,1009.45
2019-05-16T00:04:32.804Z,1009.37
2019-05-16T00:05:32.774Z,1009.41
2019-05-16T00:06:32.762Z,1009.41
2019-05-16T00:07:32.749Z,1009.42
2019-05-16T00:08:32.737Z,1009.47
2019-05-16T00:09:32.725Z,1009.47
2019-05-16T00:10:32.733Z,1009.42
2019-05-16T00:11:32.703Z,1009.44
2019-05-16T00:12:32.692Z,1009.39
2019-05-16T00:13:32.680Z,1009.40
2019-05-16T00:14:32.669Z,1009.38
2019-05-16T00:15:32.673Z,1009.42
2019-05-16T00:16:32.644Z,1009.34
2019-05-16T00:17:32.638Z,1009.38
2019-05-16T00:18:32.621Z,1009.34
2019-05-16T00:19:32.608Z,1009.30
2019-05-16T00:20:32.623Z,1009.28
2019-05-16T00:21:32.586Z,1009.36
2019-05-16T00:22:32.576Z,1009.32
2019-05-16T00:23:32.564Z,1009.29
2019-05-16T00:24:32.550Z,1009.33
2019-05-16T00:25:32.540Z,1009.28
2019-05-16T00:26:32.548Z,1009.31
2019-05-16T00:27:32.518Z,1009.30
2019-05-16T00:28:32.519Z,1009.24
2019-05-16T00:29:32.492Z,1009.30
2019-05-16T00:30:32.482Z,1009.26
2019-05-16T00:31:32.472Z,1009.29
2019-05-16T00:32:32.476Z,1009.19
2019-05-16T00:33:32.448Z,1009.18
2019-05-16T00:34:32.435Z,1009.20
2019-05-16T00:35:32.426Z,1009.19
2019-05-16T00:36:32.412Z,1009.21
2019-05-16T00:37:32.423Z,1009.22
2019-05-16T00:38:32.388Z,1009.19
2019-05-16T00:39:32.379Z,1009.22
2019-05-16T00:40:32.367Z,1009.21
2019-05-16T00:41:32.354Z,1009.18
2019-05-16T00:42:32.342Z,1009.16
2019-05-16T00:43:32.351Z,1009.18
2019-05-16T00:44:32.318Z,1009.23
2019-05-16T00:45:32.309Z,1009.16
2019-05-16T00:46:32.296Z,1009.16
2019-05-16T00:47:32.288Z,1009.13
2019-05-16T00:48:32.289Z,1009.19
2019-05-16T00:49:32.262Z,1009.21
2019-05-16T00:50:32.249Z,1009.15
2019-05-16T00:51:32.238Z,1009.12
2019-05-16T00:52:32.223Z,1009.13
2019-05-16T00:53:32.239Z,1009.10
2019-05-16T00:54:32.204Z,1009.08
2019-05-16T00:55:32.191Z,1009.11
2019-05-16T00:56:32.179Z,1009.10
2019-05-16T00:57:32.169Z,1009.12
2019-05-16T00:58:32.159Z,1009.08
2019-05-16T00:59:32.163Z,1009.06
2019-05-16T01:00:32.133Z,1009.03
2019-05-16T01:01:32.121Z,1009.03
2019-05-16T01:02:32.125Z,1009.06
2019-05-16T01:03:32.097Z,1009.04
2019-05-16T01:04:32.103Z,1009.08
2019-05-16T01:05:32.074Z,1009.08
2019-05-16T01:06:32.064Z,1009.05
2019-05-16T01:07:32.056Z,1009.07
2019-05-16T01:08:32.037Z,1009.08
2019-05-16T01:09:32.045Z,1009.05
2019-05-16T01:10:32.015Z,1009.07
2019-05-16T01:11:32.005Z,1009.04
2019-05-16T01:12:31.992Z,1009.07
2019-05-16T01:13:31.983Z,1008.98
2019-05-16T01:14:31.988Z,1009.08
2019-05-16T01:15:31.960Z,1009.00
2019-05-16T01:16:31.946Z,1008.97
2019-05-16T01:17:31.938Z,1009.03
2019-05-16T01:18:31.924Z,1008.95
2019-05-16T01:19:31.928Z,1009.02
2019-05-16T01:20:31.900Z,1008.97
2019-05-16T01:21:31.891Z,1008.96
2019-05-16T01:22:31.877Z,1008.96
2019-05-16T01:23:31.864Z,1008.95
2019-05-16T01:24:31.872Z,1008.95
2019-05-16T01:25:31.841Z,1008.89
2019-05-16T01:26:31.829Z,1008.89
2019-05-16T01:27:31.816Z,1008.81
2019-05-16T01:28:31.806Z,1008.84
2019-05-16T01:29:31.812Z,1008.80
2019-05-16T01:30:31.784Z,1008.79
2019-05-16T01:31:31.776Z,1008.82
2019-05-16T01:32:32.135Z,1008.78
2019-05-16T01:33:31.751Z,1008.77
2019-05-16T01:34:31.754Z,1008.75
2019-05-16T01:35:31.725Z,1008.71
2019-05-16T01:36:36.608Z,1008.70
2019-05-16T01:37:32.701Z,1008.72
2019-05-16T01:38:31.689Z,1008.70
2019-05-16T01:39:31.696Z,1008.65
2019-05-16T01:40:31.667Z,1008.66
2019-05-16T01:41:31.656Z,1008.64
2019-05-16T01:42:31.643Z,1008.64
2019-05-16T01:43:31.633Z,1008.63
2019-05-16T01:44:31.643Z,1008.64
2019-05-16T01:45:31.608Z,1008.63
2019-05-16T01:46:31.597Z,1008.64
2019-05-16T01:47:31.586Z,1008.65
2019-05-16T01:48:31.574Z,1008.62
2019-05-16T01:49:31.563Z,1008.56
2019-05-16T01:50:31.568Z,1008.58
2019-05-16T01:51:31.539Z,1008.59
2019-05-16T01:52:31.526Z,1008.57
2019-05-16T01:53:31.515Z,1008.56
2019-05-16T01:54:31.504Z,1008.50
2019-05-16T01:55:31.510Z,1008.54
2019-05-16T01:56:31.482Z,1008.55
2019-05-16T01:57:31.467Z,1008.50
2019-05-16T01:58:31.456Z,1008.50
2019-05-16T01:59:31.446Z,1008.53
2019-05-16T02:00:36.904Z,1008.48
2019-05-16T02:01:32.420Z,1008.44
2019-05-16T02:02:31.411Z,1008.50
2019-05-16T02:03:31.398Z,1008.41
2019-05-16T02:04:31.394Z,1008.45
2019-05-16T02:05:31.376Z,1008.45
2019-05-16T02:06:31.384Z,1008.39
2019-05-16T02:07:31.352Z,1008.43
2019-05-16T02:08:31.341Z,1008.37
2019-05-16T02:09:31.328Z,1008.37
2019-05-16T02:10:31.318Z,1008.38
2019-05-16T02:11:31.324Z,1008.40
2019-05-16T02:12:31.292Z,1008.41
2019-05-16T02:13:31.280Z,1008.38
2019-05-16T02:14:31.273Z,1008.38
2019-05-16T02:15:31.259Z,1008.44
2019-05-16T02:16:31.269Z,1008.37
2019-05-16T02:17:31.272Z,1008.42
2019-05-16T02:18:31.224Z,1008.39
2019-05-16T02:19:31.213Z,1008.31
2019-05-16T02:20:31.203Z,1008.29
2019-05-16T02:21:31.193Z,1008.23
2019-05-16T02:22:31.199Z,1008.17
2019-05-16T02:23:31.167Z,1008.24
2019-05-16T02:24:31.154Z,1008.25
2019-05-16T02:25:31.144Z,1008.23
2019-05-16T02:26:31.135Z,1008.22
2019-05-16T02:27:31.139Z,1008.22
2019-05-16T02:28:39.777Z,1008.13
2019-05-16T02:29:32.101Z,1008.22
2019-05-16T02:30:31.591Z,1008.21
2019-05-16T02:31:31.474Z,1008.25
2019-05-16T02:32:31.467Z,1008.22
2019-05-16T02:33:31.880Z,1008.21
2019-05-16T02:34:31.042Z,1008.20
2019-05-16T02:35:31.289Z,1008.16
2019-05-16T02:36:31.462Z,1008.19
2019-05-16T02:37:34.809Z,1008.20
2019-05-16T02:38:31.725Z,1008.18
2019-05-16T02:39:30.983Z,1008.19
2019-05-16T02:40:31.437Z,1008.20
2019-05-16T02:41:31.187Z,1008.18
2019-05-16T02:42:31.409Z,1008.18
2019-05-16T02:43:31.495Z,1008.16
2019-05-16T02:44:31.933Z,1008.15
2019-05-16T02:45:32.540Z,1008.08
2019-05-16T02:46:31.062Z,1008.15
2019-05-16T02:47:34.609Z,1008.07
2019-05-16T02:48:31.612Z,1008.07
2019-05-16T02:49:34.084Z,1008.05
2019-05-16T02:50:31.855Z,1008.03
2019-05-16T02:51:31.532Z,1007.96
2019-05-16T02:52:31.718Z,1008.02
2019-05-16T02:53:31.175Z,1007.97
2019-05-16T02:54:31.636Z,1007.96
2019-05-16T02:55:31.115Z,1007.94
2019-05-16T02:56:31.724Z,1007.97
2019-05-16T02:57:31.608Z,1008.01
2019-05-16T02:58:31.013Z,1008.02
2019-05-16T02:59:30.923Z,1007.91
2019-05-16T03:00:30.960Z,1007.92
2019-05-16T03:01:31.675Z,1007.92
2019-05-16T03:02:31.329Z,1007.98
2019-05-16T03:03:31.642Z,1007.97
2019-05-16T03:04:30.878Z,1008.02
2019-05-16T03:05:30.721Z,1007.97
2019-05-16T03:06:32.056Z,1008.04
2019-05-16T03:07:40.594Z,1007.99
2019-05-16T03:08:32.092Z,1008.05
2019-05-16T03:09:30.684Z,1008.03
2019-05-16T03:10:31.211Z,1007.97
2019-05-16T03:11:31.476Z,1007.96
2019-05-16T03:12:31.124Z,1007.99
2019-05-16T03:13:31.213Z,1007.96
2019-05-16T03:14:31.517Z,1007.87
2019-05-16T03:15:31.142Z,1007.90
2019-05-16T03:16:31.587Z,1007.89
2019-05-16T03:17:31.805Z,1007.85
2019-05-16T03:18:31.186Z,1007.86
2019-05-16T03:19:31.245Z,1007.85
2019-05-16T03:20:31.543Z,1007.87
2019-05-16T03:21:30.930Z,1007.81
2019-05-16T03:22:31.503Z,1007.78
2019-05-16T03:23:31.023Z,1007.86
2019-05-16T03:24:31.105Z,1007.78
2019-05-16T03:25:31.122Z,1007.75
2019-05-16T03:26:31.495Z,1007.82
2019-05-16T03:27:30.745Z,1007.79
2019-05-16T03:28:30.797Z,1007.72
2019-05-16T03:29:30.963Z,1007.70
2019-05-16T03:30:35.018Z,1007.72
2019-05-16T03:31:34.106Z,1007.82
2019-05-16T03:32:34.036Z,1007.83
2019-05-16T03:33:35.161Z,1007.82
2019-05-16T03:34:34.481Z,1007.76
2019-05-16T03:35:33.920Z,1007.74
2019-05-16T03:36:34.544Z,1007.77
2019-05-16T03:37:30.855Z,1007.70
2019-05-16T03:38:30.806Z,1007.75
2019-05-16T03:39:31.352Z,1007.82
2019-05-16T03:40:31.342Z,1007.76
2019-05-16T03:41:30.963Z,1007.74
2019-05-16T03:42:31.123Z,1007.76
2019-05-16T03:43:31.016Z,1007.71
2019-05-16T03:44:31.687Z,1007.78
2019-05-16T03:45:31.929Z,1007.76
2019-05-16T03:46:30.928Z,1007.72
2019-05-16T03:47:31.390Z,1007.79
2019-05-16T03:48:31.495Z,1007.75
2019-05-16T03:49:31.285Z,1007.73
2019-05-16T03:50:30.758Z,1007.72
2019-05-16T03:51:30.946Z,1007.77
2019-05-16T03:52:30.990Z,1007.80
2019-05-16T03:53:31.706Z,1007.74
2019-05-16T03:54:31.435Z,1007.69
2019-05-16T03:55:32.492Z,1007.74
2019-05-16T03:56:30.658Z,1007.74
2019-05-16T03:57:30.689Z,1007.74
2019-05-16T03:58:30.993Z,1007.76
2019-05-16T03:59:31.534Z,1007.73
2019-05-16T04:00:31.611Z,1007.69
2019-05-16T04:01:31.351Z,1007.71
2019-05-16T04:02:30.899Z,1007.74
2019-05-16T04:03:33.125Z,1007.75
2019-05-16T04:04:30.839Z,1007.71
2019-05-16T04:05:31.828Z,1007.67
2019-05-16T04:06:31.112Z,1007.72
2019-05-16T04:07:31.696Z,1007.63
2019-05-16T04:08:30.975Z,1007.69
2019-05-16T04:09:31.509Z,1007.67
2019-05-16T04:10:30.970Z,1007.67
2019-05-16T04:11:32.065Z,1007.61
2019-05-16T04:12:30.835Z,1007.62
2019-05-16T04:13:31.405Z,1007.63
2019-05-16T04:14:30.946Z,1007.66
2019-05-16T04:15:31.144Z,1007.65
2019-05-16T04:16:31.340Z,1007.63
2019-05-16T04:17:31.642Z,1007.60
2019-05-16T04:18:31.796Z,1007.68
2019-05-16T04:19:31.361Z,1007.61
2019-05-16T04:20:30.550Z,1007.61
2019-05-16T04:21:32.278Z,1007.61
2019-05-16T04:22:31.861Z,1007.65
2019-05-16T04:23:31.355Z,1007.61
2019-05-16T04:24:31.585Z,1007.63
2019-05-16T04:25:31.095Z,1007.66
2019-05-16T04:26:30.859Z,1007.61
2019-05-16T04:27:30.895Z,1007.65
2019-05-16T04:28:31.796Z,1007.63
2019-05-16T04:29:31.535Z,1007.63
2019-05-16T04:30:31.277Z,1007.68
2019-05-16T04:31:30.818Z,1007.61
2019-05-16T04:32:31.528Z,1007.64
2019-05-16T04:33:30.849Z,1007.67
2019-05-16T04:34:31.127Z,1007.68
2019-05-16T04:35:31.701Z,1007.66
2019-05-16T04:36:32.444Z,1007.68
2019-05-16T04:37:31.446Z,1007.64
2019-05-16T04:38:39.705Z,1007.64
2019-05-16T04:39:31.849Z,1007.63
2019-05-16T04:40:31.159Z,1007.67
2019-05-16T04:41:31.339Z,1007.67
2019-05-16T04:42:31.109Z,1007.65
2019-05-16T04:43:31.544Z,1007.69
2019-05-16T04:44:31.067Z,1007.63
2019-05-16T04:45:31.829Z,1007.74
2019-05-16T04:46:31.447Z,1007.71
2019-05-16T04:47:31.703Z,1007.72
2019-05-16T04:48:31.028Z,1007.61
2019-05-16T04:49:32.005Z,1007.61
2019-05-16T04:50:31.139Z,1007.62
2019-05-16T04:51:30.640Z,1007.60
2019-05-16T04:52:30.619Z,1007.61
2019-05-16T04:53:31.659Z,1007.63
2019-05-16T04:54:30.767Z,1007.65
2019-05-16T04:55:31.584Z,1007.60
2019-05-16T04:56:30.850Z,1007.56
2019-05-16T04:57:31.386Z,1007.59
2019-05-16T04:58:31.689Z,1007.58
2019-05-16T04:59:31.282Z,1007.57
2019-05-16T05:00:31.908Z,1007.64
2019-05-16T05:01:30.692Z,1007.59
2019-05-16T05:02:30.985Z,1007.59
2019-05-16T05:03:31.540Z,1007.59
2019-05-16T05:04:30.647Z,1007.61
2019-05-16T05:05:33.066Z,1007.55
2019-05-16T05:06:31.343Z,1007.57
2019-05-16T05:07:31.262Z,1007.55
2019-05-16T05:08:30.796Z,1007.53
2019-05-16T05:09:31.565Z,1007.55
2019-05-16T05:10:31.243Z,1007.54
2019-05-16T05:11:30.603Z,1007.52
2019-05-16T05:12:31.527Z,1007.60
2019-05-16T05:13:30.677Z,1007.60
2019-05-16T05:14:30.721Z,1007.57
2019-05-16T05:15:30.633Z,1007.57
2019-05-16T05:16:30.646Z,1007.59
2019-05-16T05:17:30.676Z,1007.61
2019-05-16T05:18:30.309Z,1007.65
2019-05-16T05:19:30.675Z,1007.58
2019-05-16T05:20:30.410Z,1007.58
2019-05-16T05:21:31.345Z,1007.62
2019-05-16T05:22:30.467Z,1007.59
2019-05-16T05:23:30.121Z,1007.59
2019-05-16T05:24:30.238Z,1007.57
2019-05-16T05:25:30.873Z,1007.56
2019-05-16T05:26:30.565Z,1007.60
2019-05-16T05:27:30.261Z,1007.59
2019-05-16T05:28:29.932Z,1007.59
2019-05-16T05:29:30.728Z,1007.59
2019-05-16T05:30:30.353Z,1007.64
2019-05-16T05:31:34.440Z,1007.58
2019-05-16T05:32:30.607Z,1007.62
2019-05-16T05:33:30.204Z,1007.52
2019-05-16T05:34:30.497Z,1007.56
2019-05-16T05:35:31.101Z,1007.58
2019-05-16T05:36:30.071Z,1007.63
2019-05-16T05:37:29.787Z,1007.54
2019-05-16T05:38:31.012Z,1007.47
2019-05-16T05:39:30.310Z,1007.47
2019-05-16T05:40:29.710Z,1007.52
2019-05-16T05:41:30.263Z,1007.49
2019-05-16T05:42:30.618Z,1007.51
2019-05-16T05:43:31.434Z,1007.54
2019-05-16T05:44:30.680Z,1007.48
2019-05-16T05:45:30.626Z,1007.49
2019-05-16T05:46:31.447Z,1007.49
2019-05-16T05:47:30.762Z,1007.44
2019-05-16T05:48:30.800Z,1007.50
2019-05-16T05:49:30.152Z,1007.49
2019-05-16T05:50:30.714Z,1007.49
2019-05-16T05:51:30.129Z,1007.47
2019-05-16T05:52:30.386Z,1007.46
2019-05-16T05:53:30.027Z,1007.51
2019-05-16T05:54:30.836Z,1007.53
2019-05-16T05:55:31.364Z,1007.52
2019-05-16T05:56:30.471Z,1007.56
2019-05-16T05:57:30.035Z,1007.54
2019-05-16T05:58:30.778Z,1007.60
2019-05-16T05:59:30.633Z,1007.60
2019-05-16T06:00:30.307Z,1007.58
2019-05-16T06:01:31.380Z,1007.55
2019-05-16T06:02:30.795Z,1007.59
2019-05-16T06:03:32.352Z,1007.56
2019-05-16T06:04:30.524Z,1007.55
2019-05-16T06:05:30.562Z,1007.60
2019-05-16T06:06:30.383Z,1007.59
2019-05-16T06:07:30.017Z,1007.52
2019-05-16T06:08:30.610Z,1007.56
2019-05-16T06:09:32.097Z,1007.51
2019-05-16T06:10:30.391Z,1007.54
2019-05-16T06:11:30.577Z,1007.49
2019-05-16T06:12:30.274Z,1007.55
2019-05-16T06:13:30.902Z,1007.57
2019-05-16T06:14:30.609Z,1007.54
2019-05-16T06:15:30.571Z,1007.55
2019-05-16T06:16:30.837Z,1007.53
2019-05-16T06:17:30.751Z,1007.53
2019-05-16T06:18:30.531Z,1007.53
2019-05-16T06:19:29.784Z,1007.57
2019-05-16T06:20:30.698Z,1007.51
2019-05-16T06:21:33.019Z,1007.57
2019-05-16T06:22:29.967Z,1007.54
2019-05-16T06:23:30.835Z,1007.55
2019-05-16T06:24:30.512Z,1007.54
2019-05-16T06:25:31.609Z,1007.52
2019-05-16T06:26:30.208Z,1007.50
2019-05-16T06:27:30.276Z,1007.49
2019-05-16T06:28:30.831Z,1007.47
2019-05-16T06:29:30.796Z,1007.48
2019-05-16T06:30:30.432Z,1007.50
2019-05-16T06:31:31.227Z,1007.41
2019-05-16T06:32:30.247Z,1007.45
2019-05-16T06:33:30.522Z,1007.48
2019-05-16T06:34:30.173Z,1007.45
2019-05-16T06:35:29.910Z,1007.45
2019-05-16T06:36:30.492Z,1007.43
2019-05-16T06:37:30.730Z,1007.41
2019-05-16T06:38:29.893Z,1007.46
2019-05-16T06:39:39.249Z,1007.40
2019-05-16T06:40:29.581Z,1007.37
2019-05-16T06:41:30.281Z,1007.42
2019-05-16T06:42:29.910Z,1007.45
2019-05-16T06:43:30.049Z,1007.39
2019-05-16T06:44:30.661Z,1007.41
2019-05-16T06:45:28.156Z,1007.42
2019-05-16T06:46:30.522Z,1007.39
2019-05-16T06:47:30.325Z,1007.35
2019-05-16T06:48:30.280Z,1007.43
2019-05-16T06:49:30.240Z,1007.38
2019-05-16T06:50:29.720Z,1007.34
2019-05-16T06:51:30.428Z,1007.43
2019-05-16T06:52:30.178Z,1007.35
2019-05-16T06:53:29.908Z,1007.36
2019-05-16T06:54:29.900Z,1007.37
2019-05-16T06:55:29.634Z,1007.26
2019-05-16T06:56:30.558Z,1007.29
2019-05-16T06:57:30.130Z,1007.30
2019-05-16T06:58:30.157Z,1007.33
2019-05-16T06:59:29.761Z,1007.28
2019-05-16T07:00:30.206Z,1007.44
2019-05-16T07:01:29.744Z,1007.35
2019-05-16T07:02:33.695Z,1007.38
2019-05-16T07:03:30.894Z,1007.34
2019-05-16T07:04:30.314Z,1007.36
2019-05-16T07:05:29.900Z,1007.36
2019-05-16T07:06:50.322Z,1007.31
2019-05-16T07:07:30.787Z,1007.38
2019-05-16T07:08:30.714Z,1007.35
2019-05-16T07:09:30.017Z,1007.27
2019-05-16T07:10:27.861Z,1007.33
2019-05-16T07:11:27.851Z,1007.34
2019-05-16T07:12:31.403Z,1007.29
2019-05-16T07:13:30.438Z,1007.23
2019-05-16T07:14:30.735Z,1007.27
2019-05-16T07:15:29.716Z,1007.21
2019-05-16T07:16:29.864Z,1007.20
2019-05-16T07:17:27.782Z,1007.27
2019-05-16T07:18:27.769Z,1007.13
2019-05-16T07:19:30.007Z,1007.20
2019-05-16T07:20:30.047Z,1007.11
2019-05-16T07:21:27.734Z,1007.14
2019-05-16T07:22:27.725Z,1007.20
2019-05-16T07:23:29.897Z,1007.13
2019-05-16T07:24:29.985Z,1007.14
2019-05-16T07:25:29.995Z,1007.14
2019-05-16T07:26:27.680Z,1007.05
2019-05-16T07:27:27.665Z,1007.06
2019-05-16T07:28:29.925Z,1007.04
2019-05-16T07:29:27.641Z,1007.06
2019-05-16T07:30:27.650Z,1007.04
2019-05-16T07:31:29.846Z,1007.01
2019-05-16T07:32:30.131Z,1006.97
2019-05-16T07:33:27.597Z,1006.99
2019-05-16T07:34:27.585Z,1006.96
2019-05-16T07:35:27.570Z,1006.94
2019-05-16T07:36:27.583Z,1006.93
2019-05-16T07:37:27.552Z,1006.79
2019-05-16T07:38:27.538Z,1006.81
2019-05-16T07:39:27.525Z,1006.82
2019-05-16T07:40:27.514Z,1006.84
2019-05-16T07:41:27.519Z,1006.87
2019-05-16T07:42:27.490Z,1006.80
2019-05-16T07:43:27.477Z,1006.74
2019-05-16T07:44:27.466Z,1006.81
2019-05-16T07:45:27.455Z,1006.84
2019-05-16T07:46:27.468Z,1006.89
2019-05-16T07:47:27.434Z,1006.87
2019-05-16T07:48:27.419Z,1006.81
2019-05-16T07:49:27.407Z,1006.84
2019-05-16T07:50:29.897Z,1006.86
2019-05-16T07:51:27.387Z,1006.85
2019-05-16T07:52:27.395Z,1006.86
2019-05-16T07:53:27.361Z,1006.76
2019-05-16T07:54:27.360Z,1006.78
2019-05-16T07:55:27.338Z,1006.78
2019-05-16T07:56:27.326Z,1006.80
2019-05-16T07:57:27.333Z,1006.83
2019-05-16T07:58:27.301Z,1006.80
2019-05-16T07:59:27.292Z,1006.87
2019-05-16T08:00:45.727Z,1006.85
2019-05-16T08:01:30.523Z,1006.83
2019-05-16T08:02:27.296Z,1006.84
2019-05-16T08:03:27.252Z,1006.79
2019-05-16T08:04:27.231Z,1006.79
2019-05-16T08:05:30.403Z,1006.73
2019-05-16T08:06:31.055Z,1006.78
2019-05-16T08:07:33.119Z,1006.80
2019-05-16T08:08:31.029Z,1006.76
2019-05-16T08:09:27.177Z,1006.72
2019-05-16T08:10:37.844Z,1006.69
2019-05-16T08:11:30.391Z,1006.66
2019-05-16T08:12:27.573Z,1006.66
2019-05-16T08:13:27.151Z,1006.70
2019-05-16T08:14:27.124Z,1006.75
2019-05-16T08:15:27.107Z,1006.77
2019-05-16T08:16:27.095Z,1006.74
2019-05-16T08:17:27.086Z,1006.68
2019-05-16T08:18:27.092Z,1006.78
2019-05-16T08:19:27.063Z,1006.71
2019-05-16T08:20:27.051Z,1006.69
2019-05-16T08:21:27.854Z,1006.70
2019-05-16T08:22:27.049Z,1006.70
2019-05-16T08:23:27.015Z,1006.71
2019-05-16T08:24:27.003Z,1006.69
2019-05-16T08:25:26.996Z,1006.62
2019-05-16T08:26:26.978Z,1006.63
2019-05-16T08:27:26.969Z,1006.67
2019-05-16T08:28:26.973Z,1006.67
2019-05-16T08:29:26.945Z,1006.61
2019-05-16T08:30:26.936Z,1006.68
2019-05-16T08:31:26.953Z,1006.65
2019-05-16T08:32:26.913Z,1006.62
2019-05-16T08:33:26.920Z,1006.58
2019-05-16T08:34:26.887Z,1006.62
2019-05-16T08:35:26.878Z,1006.60
2019-05-16T08:36:26.865Z,1006.60
2019-05-16T08:37:42.560Z,1006.58
2019-05-16T08:38:30.597Z,1006.49
2019-05-16T08:39:26.831Z,1006.47
2019-05-16T08:40:26.822Z,1006.56
2019-05-16T08:41:26.810Z,1006.53
2019-05-16T08:42:26.848Z,1006.51
2019-05-16T08:43:26.787Z,1006.42
2019-05-16T08:44:26.799Z,1006.47
2019-05-16T08:45:26.763Z,1006.48
2019-05-16T08:46:26.758Z,1006.48
2019-05-16T08:47:26.742Z,1006.47
2019-05-16T08:48:26.729Z,1006.44
2019-05-16T08:49:26.749Z,1006.47
2019-05-16T08:50:26.705Z,1006.43
2019-05-16T08:51:26.696Z,1006.46
2019-05-16T08:52:26.684Z,1006.36
2019-05-16T08:53:26.672Z,1006.37
2019-05-16T08:54:26.718Z,1006.37
2019-05-16T08:55:26.649Z,1006.40
2019-05-16T08:56:26.638Z,1006.32
2019-05-16T08:57:28.121Z,1006.30
2019-05-16T08:58:32.700Z,1006.33
2019-05-16T08:59:27.631Z,1006.39
2019-05-16T09:00:26.591Z,1006.38
2019-05-16T09:01:26.631Z,1006.39
2019-05-16T09:03:27.618Z,1006.35
2019-05-16T09:04:26.546Z,1006.31
2019-05-16T09:05:26.552Z,1006.38
2019-05-16T09:06:26.522Z,1006.35
2019-05-16T09:07:26.510Z,1006.38
2019-05-16T09:08:26.498Z,1006.42
2019-05-16T09:10:35.642Z,1006.42
2019-05-16T09:10:49.861Z,1006.34
2019-05-16T09:12:27.905Z,1006.39
2019-05-16T09:13:29.861Z,1006.43
2019-05-16T09:14:27.660Z,1006.34
2019-05-16T09:15:27.331Z,1006.42
2019-05-16T09:16:27.552Z,1006.36
2019-05-16T09:17:27.632Z,1006.37
2019-05-16T09:18:30.275Z,1006.41
2019-05-16T09:18:38.242Z,1006.30
2019-05-16T09:18:39.651Z,1006.44
2019-05-16T09:19:27.594Z,1006.38
2019-05-16T09:20:28.105Z,1006.36
2019-05-16T09:21:27.438Z,1006.44
2019-05-16T09:22:28.242Z,1006.49
2019-05-16T09:23:26.859Z,1006.52
2019-05-16T09:24:27.159Z,1006.56
2019-05-16T09:25:27.514Z,1006.66
2019-05-16T09:26:33.790Z,1006.75
2019-05-16T09:27:27.526Z,1006.55
2019-05-16T09:28:28.365Z,1006.39
2019-05-16T09:29:27.342Z,1006.28
2019-05-16T09:30:27.425Z,1006.30
2019-05-16T09:31:27.442Z,1006.22
2019-05-16T09:32:27.862Z,1006.29
2019-05-16T09:33:27.137Z,1006.37
2019-05-16T09:34:36.711Z,1006.38
2019-05-16T09:35:28.175Z,1006.48
2019-05-16T09:36:28.066Z,1006.36
2019-05-16T09:37:26.877Z,1006.36
2019-05-16T09:38:28.436Z,1006.32
2019-05-16T09:39:27.745Z,1006.44
2019-05-16T09:40:27.831Z,1006.50
2019-05-16T09:41:28.774Z,1006.70
2019-05-16T09:42:27.830Z,1006.92
2019-05-16T09:43:28.066Z,1006.40
2019-05-16T09:44:27.316Z,1006.43
2019-05-16T09:45:27.274Z,1006.46
2019-05-16T09:46:27.585Z,1006.37
2019-05-16T09:47:28.182Z,1006.54
2019-05-16T09:48:27.991Z,1006.85
2019-05-16T09:49:26.264Z,1006.34
2019-05-16T09:50:26.640Z,1006.32
2019-05-16T09:51:27.184Z,1006.29
2019-05-16T09:52:27.308Z,1006.27
2019-05-16T09:53:27.555Z,1006.29
2019-05-16T09:54:27.369Z,1006.29
2019-05-16T09:55:26.833Z,1006.28
2019-05-16T09:56:26.999Z,1006.40
2019-05-16T09:57:27.838Z,1006.30
2019-05-16T09:58:27.805Z,1006.27
2019-05-16T09:59:26.402Z,1006.22
2019-05-16T10:00:26.966Z,1006.25
2019-05-16T10:01:27.600Z,1006.36
2019-05-16T10:02:27.443Z,1006.23
2019-05-16T10:03:27.048Z,1006.22
2019-05-16T10:04:26.724Z,1006.12
2019-05-16T10:05:26.631Z,1006.16
2019-05-16T10:06:27.617Z,1006.05
2019-05-16T10:07:28.211Z,1006.08
2019-05-16T10:08:26.734Z,1006.07
2019-05-16T10:09:40.255Z,1006.14
2019-05-16T10:10:26.793Z,1006.00
2019-05-16T10:11:31.255Z,1005.94
2019-05-16T10:12:26.809Z,1005.95
2019-05-16T10:13:27.758Z,1005.96
2019-05-16T10:14:26.889Z,1005.96
2019-05-16T10:15:26.974Z,1005.96
2019-05-16T10:16:27.533Z,1005.86
2019-05-16T10:17:27.296Z,1005.91
2019-05-16T10:18:27.888Z,1005.95
2019-05-16T10:19:27.584Z,1005.91
2019-05-16T10:20:27.377Z,1005.91
2019-05-16T10:21:27.213Z,1005.83
2019-05-16T10:22:27.262Z,1005.81
2019-05-16T10:23:25.670Z,1005.86
2019-05-16T10:24:26.834Z,1005.91
2019-05-16T10:25:27.654Z,1005.86
2019-05-16T10:26:27.659Z,1005.83
2019-05-16T10:27:26.509Z,1005.89
2019-05-16T10:28:27.652Z,1005.93
2019-05-16T10:29:27.452Z,1005.96
2019-05-16T10:30:26.964Z,1006.02
2019-05-16T10:31:41.024Z,1006.09
2019-05-16T10:32:27.332Z,1006.33
2019-05-16T10:33:27.559Z,1006.08
2019-05-16T10:34:26.571Z,1006.00
2019-05-16T10:35:29.468Z,1005.92
2019-05-16T10:36:27.919Z,1005.78
2019-05-16T10:37:26.911Z,1005.77
2019-05-16T10:38:28.560Z,1005.66
2019-05-16T10:39:26.853Z,1005.69
2019-05-16T10:40:27.379Z,1005.72
2019-05-16T10:41:25.446Z,1005.66
2019-05-16T10:42:28.914Z,1005.67
2019-05-16T10:43:26.474Z,1005.67
2019-05-16T10:44:28.138Z,1005.68
2019-05-16T10:45:27.328Z,1005.59
2019-05-16T10:46:26.986Z,1005.54
2019-05-16T10:47:28.719Z,1005.53
2019-05-16T10:48:27.078Z,1005.54
2019-05-16T10:49:36.562Z,1005.65
2019-05-16T10:50:27.628Z,1006.03
2019-05-16T10:51:26.949Z,1005.97
2019-05-16T10:52:26.884Z,1006.15
2019-05-16T10:53:52.242Z,1006.05
2019-05-16T10:54:27.593Z,1005.72
2019-05-16T10:55:27.642Z,1005.87
2019-05-16T10:56:25.276Z,1005.76
2019-05-16T10:57:29.422Z,1005.60
2019-05-16T10:58:36.628Z,1005.69
2019-05-16T10:59:56.597Z,1005.59
2019-05-16T11:00:49.044Z,1005.62
2019-05-16T11:01:28.675Z,1005.50
2019-05-16T11:02:27.403Z,1005.53
2019-05-16T11:03:27.419Z,1005.47
2019-05-16T11:04:33.348Z,1005.40
2019-05-16T11:05:30.481Z,1005.48
2019-05-16T11:06:29.120Z,1005.46
2019-05-16T11:07:29.455Z,1005.44
2019-05-16T11:08:25.140Z,1005.43
2019-05-16T11:09:25.147Z,1005.41
2019-05-16T11:10:26.842Z,1005.47
2019-05-16T11:11:27.271Z,1005.49
2019-05-16T11:12:45.426Z,1005.52
2019-05-16T11:13:28.063Z,1005.50
2019-05-16T11:14:27.987Z,1005.62
2019-05-16T11:15:27.614Z,1005.81
2019-05-16T11:16:27.564Z,1005.52
2019-05-16T11:17:27.666Z,1005.41
2019-05-16T11:18:27.175Z,1005.42
2019-05-16T11:19:28.101Z,1005.48
2019-05-16T11:20:26.798Z,1005.41
2019-05-16T11:21:26.817Z,1005.45
2019-05-16T11:22:29.468Z,1005.41
2019-05-16T11:23:30.746Z,1005.43
2019-05-16T11:24:28.910Z,1005.39
2019-05-16T11:25:31.668Z,1005.39
2019-05-16T11:26:29.881Z,1005.29
2019-05-16T11:27:24.930Z,1005.39
2019-05-16T11:28:24.974Z,1005.26
2019-05-16T11:29:24.950Z,1005.38
2019-05-16T11:30:25.595Z,1005.36
2019-05-16T11:31:26.679Z,1005.37
2019-05-16T11:32:26.991Z,1005.35
2019-05-16T11:33:27.929Z,1005.33
2019-05-16T11:34:26.694Z,1005.35
2019-05-16T11:35:27.224Z,1005.39
2019-05-16T11:36:26.818Z,1005.33
2019-05-16T11:37:24.812Z,1005.33
2019-05-16T11:38:24.801Z,1005.44
2019-05-16T11:39:24.790Z,1005.75
2019-05-16T11:40:24.800Z,1005.75
2019-05-16T11:41:27.325Z,1005.46
2019-05-16T11:42:24.758Z,1005.38
2019-05-16T11:43:24.746Z,1005.33
2019-05-16T11:44:31.793Z,1005.34
2019-05-16T11:45:27.068Z,1005.27
2019-05-16T11:46:27.886Z,1005.34
2019-05-16T11:47:27.104Z,1005.30
2019-05-16T11:48:28.296Z,1005.21
2019-05-16T11:49:24.679Z,1005.23
2019-05-16T11:50:24.667Z,1005.26
2019-05-16T11:51:27.095Z,1005.24
2019-05-16T11:52:24.649Z,1005.22
2019-05-16T11:53:27.985Z,1005.22
2019-05-16T11:54:26.617Z,1005.17
2019-05-16T11:55:32.206Z,1005.19
2019-05-16T11:56:25.616Z,1005.18
2019-05-16T11:57:24.588Z,1005.16
2019-05-16T11:58:26.673Z,1005.10
2019-05-16T11:59:24.565Z,1005.10
2019-05-16T12:00:24.562Z,1005.09
2019-05-16T12:01:27.274Z,1005.10
2019-05-16T12:02:27.584Z,1005.10
2019-05-16T12:03:24.527Z,1005.07
2019-05-16T12:04:24.508Z,1005.09
2019-05-16T12:05:27.131Z,1005.02